![]() |
EMODnet Physics ERDDAP
Easier access to scientific data |
log in|
Brought to you by EMODnet Physics |
| Dataset Title: | NDBC - Collection of dew point temperature (DEWT) TimeSeries - IN SITU MultiPointTimeSeriesObservation
|
| Institution: | NDBC (Dataset ID: TS_DEWT_NDBC) |
| Information: | Summary
| License
| FGDC
| ISO 19115
| Metadata
| Background
| Subset
| Data Access Form
| Make a graph
|
| Name | Last modified | Size | Description | |
|---|---|---|---|---|
| Parent Directory | - | - | ||
| CMTI2_TS_DEWT_012015.nc | 25-Dec-2024 09:07 | 4863273 | ||
| CMTI2_TS_DEWT_012016.nc | 25-Dec-2024 09:13 | 1100987 | ||
| CMTI2_TS_DEWT_012017.nc | 25-Dec-2024 09:20 | 1024502 | ||
| CMTI2_TS_DEWT_012018.nc | 25-Dec-2024 09:27 | 2980089 | ||
| CMTI2_TS_DEWT_012019.nc | 25-Dec-2024 09:34 | 4938950 | ||
| CMTI2_TS_DEWT_012020.nc | 25-Dec-2024 09:41 | 1032488 | ||
| CMTI2_TS_DEWT_012021.nc | 25-Dec-2024 09:47 | 3885221 | ||
| CMTI2_TS_DEWT_012022.nc | 25-Dec-2024 09:53 | 3464566 | ||
| CMTI2_TS_DEWT_012023.nc | 25-Dec-2024 09:59 | 1110720 | ||
| CMTI2_TS_DEWT_012025.nc | 07-Feb-2025 09:50 | 4550856 | ||
| CMTI2_TS_DEWT_012026.nc | 02-Feb-2026 15:45 | 1109829 | ||
| CMTI2_TS_DEWT_022015.nc | 25-Dec-2024 09:08 | 3270293 | ||
| CMTI2_TS_DEWT_022016.nc | 25-Dec-2024 09:14 | 1107187 | ||
| CMTI2_TS_DEWT_022017.nc | 25-Dec-2024 09:21 | 1109714 | ||
| CMTI2_TS_DEWT_022018.nc | 25-Dec-2024 09:28 | 478048 | ||
| CMTI2_TS_DEWT_022019.nc | 25-Dec-2024 09:35 | 1111283 | ||
| CMTI2_TS_DEWT_022020.nc | 25-Dec-2024 09:41 | 1101960 | ||
| CMTI2_TS_DEWT_022022.nc | 25-Dec-2024 09:54 | 1030577 | ||
| CMTI2_TS_DEWT_022023.nc | 25-Dec-2024 10:00 | 1021036 | ||
| CMTI2_TS_DEWT_022025.nc | 01-Mar-2025 04:43 | 450380 | ||
| CMTI2_TS_DEWT_022026.nc | 01-Mar-2026 15:17 | 1112388 | ||
| CMTI2_TS_DEWT_032014.nc | 25-Dec-2024 09:02 | 1265210 | ||
| CMTI2_TS_DEWT_032015.nc | 25-Dec-2024 09:08 | 1112378 | ||
| CMTI2_TS_DEWT_032016.nc | 25-Dec-2024 09:14 | 1106327 | ||
| CMTI2_TS_DEWT_032017.nc | 25-Dec-2024 09:21 | 5611073 | ||
| CMTI2_TS_DEWT_032018.nc | 25-Dec-2024 09:29 | 1115949 | ||
| CMTI2_TS_DEWT_032019.nc | 25-Dec-2024 09:35 | 1108656 | ||
| CMTI2_TS_DEWT_032020.nc | 25-Dec-2024 09:42 | 1111090 | ||
| CMTI2_TS_DEWT_032022.nc | 25-Dec-2024 09:54 | 5224815 | ||
| CMTI2_TS_DEWT_032023.nc | 25-Dec-2024 10:01 | 1265464 | ||
| CMTI2_TS_DEWT_032025.nc | 02-Apr-2025 03:46 | 429874 | ||
| CMTI2_TS_DEWT_032026.nc | 26-Mar-2026 04:38 | 425849 | ||
| CMTI2_TS_DEWT_042014.nc | 25-Dec-2024 09:02 | 426045 | ||
| CMTI2_TS_DEWT_042015.nc | 25-Dec-2024 09:09 | 422054 | ||
| CMTI2_TS_DEWT_042016.nc | 25-Dec-2024 09:15 | 1626436 | ||
| CMTI2_TS_DEWT_042017.nc | 25-Dec-2024 09:22 | 1625185 | ||
| CMTI2_TS_DEWT_042018.nc | 25-Dec-2024 09:29 | 1626992 | ||
| CMTI2_TS_DEWT_042019.nc | 25-Dec-2024 09:36 | 1457334 | ||
| CMTI2_TS_DEWT_042020.nc | 25-Dec-2024 09:43 | 1627200 | ||
| CMTI2_TS_DEWT_042022.nc | 25-Dec-2024 09:55 | 1466500 | ||
| CMTI2_TS_DEWT_042025.nc | 01-May-2025 04:55 | 1465810 | ||
| CMTI2_TS_DEWT_052014.nc | 25-Dec-2024 09:03 | 1627067 | ||
| CMTI2_TS_DEWT_052015.nc | 25-Dec-2024 09:09 | 605717 | ||
| CMTI2_TS_DEWT_052016.nc | 25-Dec-2024 09:16 | 1627583 | ||
| CMTI2_TS_DEWT_052017.nc | 25-Dec-2024 09:23 | 1626149 | ||
| CMTI2_TS_DEWT_052018.nc | 25-Dec-2024 09:30 | 1627720 | ||
| CMTI2_TS_DEWT_052019.nc | 25-Dec-2024 09:36 | 1627614 | ||
| CMTI2_TS_DEWT_052020.nc | 25-Dec-2024 09:43 | 1627726 | ||
| CMTI2_TS_DEWT_052022.nc | 25-Dec-2024 09:55 | 1830951 | ||
| CMTI2_TS_DEWT_052023.nc | 25-Dec-2024 10:02 | 682037 | ||
| CMTI2_TS_DEWT_052025.nc | 01-Jun-2025 06:29 | 429065 | ||
| CMTI2_TS_DEWT_062014.nc | 25-Dec-2024 09:03 | 421817 | ||
| CMTI2_TS_DEWT_062015.nc | 25-Dec-2024 09:10 | 428089 | ||
| CMTI2_TS_DEWT_062016.nc | 25-Dec-2024 09:16 | 1468922 | ||
| CMTI2_TS_DEWT_062017.nc | 25-Dec-2024 09:23 | 1470069 | ||
| CMTI2_TS_DEWT_062018.nc | 25-Dec-2024 09:30 | 1469932 | ||
| CMTI2_TS_DEWT_062019.nc | 25-Dec-2024 09:37 | 1159503 | ||
| CMTI2_TS_DEWT_062020.nc | 25-Dec-2024 09:44 | 1464331 | ||
| CMTI2_TS_DEWT_062022.nc | 25-Dec-2024 09:56 | 1469328 | ||
| CMTI2_TS_DEWT_062023.nc | 25-Dec-2024 10:02 | 1148370 | ||
| CMTI2_TS_DEWT_062025.nc | 17-Jun-2025 05:11 | 1474428 | ||
| CMTI2_TS_DEWT_072014.nc | 25-Dec-2024 09:04 | 592122 | ||
| CMTI2_TS_DEWT_072015.nc | 25-Dec-2024 09:10 | 1470787 | ||
| CMTI2_TS_DEWT_072016.nc | 25-Dec-2024 09:17 | 1470926 | ||
| CMTI2_TS_DEWT_072017.nc | 25-Dec-2024 09:24 | 1474273 | ||
| CMTI2_TS_DEWT_072018.nc | 25-Dec-2024 09:31 | 1470505 | ||
| CMTI2_TS_DEWT_072019.nc | 25-Dec-2024 09:37 | 1470752 | ||
| CMTI2_TS_DEWT_072020.nc | 25-Dec-2024 09:44 | 1649235 | ||
| CMTI2_TS_DEWT_072022.nc | 25-Dec-2024 09:56 | 429491 | ||
| CMTI2_TS_DEWT_072023.nc | 25-Dec-2024 10:03 | 429832 | ||
| CMTI2_TS_DEWT_072025.nc | 16-Aug-2025 05:20 | 429786 | ||
| CMTI2_TS_DEWT_082014.nc | 25-Dec-2024 09:05 | 1477698 | ||
| CMTI2_TS_DEWT_082015.nc | 25-Dec-2024 09:11 | 1627120 | ||
| CMTI2_TS_DEWT_082016.nc | 25-Dec-2024 09:17 | 1625397 | ||
| CMTI2_TS_DEWT_082017.nc | 25-Dec-2024 09:24 | 1470536 | ||
| CMTI2_TS_DEWT_082018.nc | 25-Dec-2024 09:31 | 1627470 | ||
| CMTI2_TS_DEWT_082019.nc | 25-Dec-2024 09:38 | 1471112 | ||
| CMTI2_TS_DEWT_082020.nc | 25-Dec-2024 09:45 | 1472793 | ||
| CMTI2_TS_DEWT_082022.nc | 25-Dec-2024 09:57 | 1627855 | ||
| CMTI2_TS_DEWT_082023.nc | 25-Dec-2024 10:03 | 1474919 | ||
| CMTI2_TS_DEWT_082025.nc | 01-Sep-2025 05:50 | 1627866 | ||
| CMTI2_TS_DEWT_092014.nc | 25-Dec-2024 09:05 | 1626988 | ||
| CMTI2_TS_DEWT_092015.nc | 25-Dec-2024 09:11 | 1626910 | ||
| CMTI2_TS_DEWT_092016.nc | 25-Dec-2024 09:18 | 1158720 | ||
| CMTI2_TS_DEWT_092017.nc | 25-Dec-2024 09:25 | 1627721 | ||
| CMTI2_TS_DEWT_092018.nc | 25-Dec-2024 09:32 | 1831936 | ||
| CMTI2_TS_DEWT_092019.nc | 25-Dec-2024 09:39 | 429493 | ||
| CMTI2_TS_DEWT_092020.nc | 25-Dec-2024 09:45 | 429423 | ||
| CMTI2_TS_DEWT_092022.nc | 25-Dec-2024 09:57 | 1475691 | ||
| CMTI2_TS_DEWT_092023.nc | 25-Dec-2024 10:04 | 1474294 | ||
| CMTI2_TS_DEWT_092025.nc | 01-Oct-2025 05:40 | 1475287 | ||
| CMTI2_TS_DEWT_102014.nc | 25-Dec-2024 09:06 | 1470387 | ||
| CMTI2_TS_DEWT_102015.nc | 25-Dec-2024 09:12 | 1477000 | ||
| CMTI2_TS_DEWT_102016.nc | 25-Dec-2024 09:18 | 1471475 | ||
| CMTI2_TS_DEWT_102017.nc | 25-Dec-2024 09:25 | 1477281 | ||
| CMTI2_TS_DEWT_102018.nc | 25-Dec-2024 09:32 | 1471686 | ||
| CMTI2_TS_DEWT_102019.nc | 25-Dec-2024 09:39 | 1477857 | ||
| CMTI2_TS_DEWT_102020.nc | 25-Dec-2024 09:46 | 1477721 | ||
| CMTI2_TS_DEWT_102022.nc | 25-Dec-2024 09:58 | 1477865 | ||
| CMTI2_TS_DEWT_102023.nc | 25-Dec-2024 10:04 | 1477696 | ||
| CMTI2_TS_DEWT_102025.nc | 01-Nov-2025 05:38 | 1477854 | ||
| CMTI2_TS_DEWT_112014.nc | 25-Dec-2024 09:06 | 1477866 | ||
| CMTI2_TS_DEWT_112015.nc | 25-Dec-2024 09:12 | 1667472 | ||
| CMTI2_TS_DEWT_112016.nc | 25-Dec-2024 09:19 | 429789 | ||
| CMTI2_TS_DEWT_112017.nc | 25-Dec-2024 09:26 | 429835 | ||
| CMTI2_TS_DEWT_112018.nc | 25-Dec-2024 09:33 | 1478144 | ||
| CMTI2_TS_DEWT_112019.nc | 25-Dec-2024 09:40 | 1627507 | ||
| CMTI2_TS_DEWT_112020.nc | 25-Dec-2024 09:46 | 1626234 | ||
| CMTI2_TS_DEWT_112022.nc | 25-Dec-2024 09:58 | 1467696 | ||
| CMTI2_TS_DEWT_112023.nc | 25-Dec-2024 10:05 | 1478556 | ||
| CMTI2_TS_DEWT_112024.nc | 17-Jan-2025 16:35 | 1161395 | ||
| CMTI2_TS_DEWT_112025.nc | 01-Dec-2025 09:25 | 1627741 | ||
| CMTI2_TS_DEWT_122014.nc | 25-Dec-2024 09:07 | 1466692 | ||
| CMTI2_TS_DEWT_122015.nc | 25-Dec-2024 09:13 | 1627332 | ||
| CMTI2_TS_DEWT_122016.nc | 25-Dec-2024 09:20 | 1627728 | ||
| CMTI2_TS_DEWT_122017.nc | 25-Dec-2024 09:27 | 1627716 | ||
| CMTI2_TS_DEWT_122018.nc | 25-Dec-2024 09:34 | 1627732 | ||
| CMTI2_TS_DEWT_122019.nc | 25-Dec-2024 09:40 | 1627718 | ||
| CMTI2_TS_DEWT_122020.nc | 25-Dec-2024 09:47 | 1627733 | ||
| CMTI2_TS_DEWT_122021.nc | 25-Dec-2024 09:53 | 1657440 | ||
| CMTI2_TS_DEWT_122022.nc | 25-Dec-2024 09:59 | 429314 | ||
| CMTI2_TS_DEWT_122023.nc | 25-Dec-2024 10:05 | 426200 | ||
| CMTI2_TS_DEWT_122024.nc | 22-Jan-2025 17:36 | 429421 | ||
| CMTI2_TS_DEWT_122025.nc | 01-Jan-2026 04:18 | 1474739 | ||